sensor_id;sensor_type;location;lat;lon;timestamp;P1;durP1;ratioP1;P2;durP2;ratioP2
31526;SDS011;18136;42.236;-73.040;2023-07-31T00:01:57;1.90;;;0.90;;
31526;SDS011;18136;42.236;-73.040;2023-07-31T00:04:24;2.42;;;1.10;;
31526;SDS011;18136;42.236;-73.040;2023-07-31T00:06:50;1.20;;;1.08;;
31526;SDS011;18136;42.236;-73.040;2023-07-31T00:09:16;1.10;;;1.00;;
31526;SDS011;18136;42.236;-73.040;2023-07-31T00:11:43;1.13;;;1.02;;
31526;SDS011;18136;42.236;-73.040;2023-07-31T00:14:09;1.25;;;1.15;;
31526;SDS011;18136;42.236;-73.040;2023-07-31T00:16:35;1.35;;;0.90;;
31526;SDS011;18136;42.236;-73.040;2023-07-31T00:19:01;1.02;;;0.98;;
31526;SDS011;18136;42.236;-73.040;2023-07-31T00:21:27;1.77;;;1.00;;
31526;SDS011;18136;42.236;-73.040;2023-07-31T00:23:54;3.40;;;1.27;;
31526;SDS011;18136;42.236;-73.040;2023-07-31T00:26:20;2.17;;;1.08;;
31526;SDS011;18136;42.236;-73.040;2023-07-31T00:28:47;1.85;;;1.40;;
31526;SDS011;18136;42.236;-73.040;2023-07-31T00:31:14;1.30;;;1.20;;
31526;SDS011;18136;42.236;-73.040;2023-07-31T00:33:41;2.67;;;1.25;;
31526;SDS011;18136;42.236;-73.040;2023-07-31T00:36:07;2.13;;;1.20;;
31526;SDS011;18136;42.236;-73.040;2023-07-31T00:38:33;3.22;;;1.20;;
31526;SDS011;18136;42.236;-73.040;2023-07-31T00:40:59;1.92;;;1.45;;
31526;SDS011;18136;42.236;-73.040;2023-07-31T00:43:25;2.75;;;1.10;;
31526;SDS011;18136;42.236;-73.040;2023-07-31T00:45:52;1.40;;;1.30;;
31526;SDS011;18136;42.236;-73.040;2023-07-31T00:48:21;1.77;;;1.30;;
31526;SDS011;18136;42.236;-73.040;2023-07-31T00:50:47;2.60;;;1.40;;
31526;SDS011;18136;42.236;-73.040;2023-07-31T00:53:13;1.55;;;1.23;;
31526;SDS011;18136;42.236;-73.040;2023-07-31T00:55:40;1.45;;;1.17;;
31526;SDS011;18136;42.236;-73.040;2023-07-31T00:58:06;3.17;;;1.35;;
31526;SDS011;18136;42.236;-73.040;2023-07-31T01:00:32;2.22;;;1.30;;
31526;SDS011;18136;42.236;-73.040;2023-07-31T01:02:58;1.10;;;1.00;;
31526;SDS011;18136;42.236;-73.040;2023-07-31T01:05:29;2.33;;;1.40;;
31526;SDS011;18136;42.236;-73.040;2023-07-31T01:08:50;2.40;;;1.50;;
31526;SDS011;18136;42.236;-73.040;2023-07-31T01:11:33;1.98;;;1.20;;
31526;SDS011;18136;42.236;-73.040;2023-07-31T01:14:03;1.17;;;1.02;;
31526;SDS011;18136;42.236;-73.040;2023-07-31T01:16:30;2.40;;;0.85;;
31526;SDS011;18136;42.236;-73.040;2023-07-31T01:18:58;1.60;;;1.20;;
31526;SDS011;18136;42.236;-73.040;2023-07-31T01:24:28;1.50;;;1.38;;
31526;SDS011;18136;42.236;-73.040;2023-07-31T01:27:15;2.75;;;1.15;;
31526;SDS011;18136;42.236;-73.040;2023-07-31T01:29:48;2.42;;;1.40;;
31526;SDS011;18136;42.236;-73.040;2023-07-31T01:32:24;2.47;;;1.40;;
31526;SDS011;18136;42.236;-73.040;2023-07-31T01:34:53;3.40;;;1.25;;
31526;SDS011;18136;42.236;-73.040;2023-07-31T01:37:20;3.25;;;1.45;;
31526;SDS011;18136;42.236;-73.040;2023-07-31T01:39:47;1.77;;;1.55;;
31526;SDS011;18136;42.236;-73.040;2023-07-31T01:42:14;2.95;;;1.83;;
31526;SDS011;18136;42.236;-73.040;2023-07-31T01:44:40;2.28;;;1.45;;
31526;SDS011;18136;42.236;-73.040;2023-07-31T01:47:06;1.70;;;1.40;;
31526;SDS011;18136;42.236;-73.040;2023-07-31T01:49:32;2.10;;;1.38;;
31526;SDS011;18136;42.236;-73.040;2023-07-31T01:51:59;1.80;;;1.52;;
31526;SDS011;18136;42.236;-73.040;2023-07-31T01:54:25;3.63;;;1.50;;
31526;SDS011;18136;42.236;-73.040;2023-07-31T01:56:51;1.52;;;1.35;;
31526;SDS011;18136;42.236;-73.040;2023-07-31T01:59:17;2.50;;;1.50;;
31526;SDS011;18136;42.236;-73.040;2023-07-31T02:01:43;3.13;;;1.10;;
31526;SDS011;18136;42.236;-73.040;2023-07-31T02:04:09;3.40;;;1.58;;
31526;SDS011;18136;42.236;-73.040;2023-07-31T02:06:36;2.30;;;1.60;;
31526;SDS011;18136;42.236;-73.040;2023-07-31T02:09:02;3.50;;;1.50;;
31526;SDS011;18136;42.236;-73.040;2023-07-31T02:11:28;2.45;;;1.30;;
31526;SDS011;18136;42.236;-73.040;2023-07-31T02:13:54;6.85;;;1.40;;
31526;SDS011;18136;42.236;-73.040;2023-07-31T02:16:21;3.38;;;1.50;;
31526;SDS011;18136;42.236;-73.040;2023-07-31T02:18:48;1.50;;;1.40;;
31526;SDS011;18136;42.236;-73.040;2023-07-31T02:21:14;3.25;;;1.40;;
31526;SDS011;18136;42.236;-73.040;2023-07-31T02:23:41;3.45;;;1.35;;
31526;SDS011;18136;42.236;-73.040;2023-07-31T02:26:07;1.30;;;1.20;;
31526;SDS011;18136;42.236;-73.040;2023-07-31T02:31:32;3.08;;;1.33;;
31526;SDS011;18136;42.236;-73.040;2023-07-31T02:33:58;7.78;;;1.63;;
31526;SDS011;18136;42.236;-73.040;2023-07-31T02:36:24;2.05;;;1.30;;
31526;SDS011;18136;42.236;-73.040;2023-07-31T02:38:50;3.28;;;1.70;;
31526;SDS011;18136;42.236;-73.040;2023-07-31T02:41:16;1.38;;;1.27;;
31526;SDS011;18136;42.236;-73.040;2023-07-31T02:43:42;2.92;;;1.15;;
31526;SDS011;18136;42.236;-73.040;2023-07-31T02:46:09;3.10;;;1.50;;
31526;SDS011;18136;42.236;-73.040;2023-07-31T02:48:35;2.25;;;1.30;;
31526;SDS011;18136;42.236;-73.040;2023-07-31T02:51:01;1.35;;;1.20;;
31526;SDS011;18136;42.236;-73.040;2023-07-31T02:53:27;3.03;;;1.65;;
31526;SDS011;18136;42.236;-73.040;2023-07-31T02:55:53;1.50;;;1.20;;
31526;SDS011;18136;42.236;-73.040;2023-07-31T02:58:19;4.55;;;1.40;;
31526;SDS011;18136;42.236;-73.040;2023-07-31T03:00:46;1.95;;;1.38;;
31526;SDS011;18136;42.236;-73.040;2023-07-31T03:03:12;2.60;;;1.45;;
31526;SDS011;18136;42.236;-73.040;2023-07-31T03:05:41;4.25;;;1.38;;
31526;SDS011;18136;42.236;-73.040;2023-07-31T03:08:07;2.38;;;1.75;;
31526;SDS011;18136;42.236;-73.040;2023-07-31T03:10:33;2.25;;;1.63;;
31526;SDS011;18136;42.236;-73.040;2023-07-31T03:12:59;3.50;;;1.63;;
31526;SDS011;18136;42.236;-73.040;2023-07-31T03:15:25;2.47;;;1.30;;
31526;SDS011;18136;42.236;-73.040;2023-07-31T03:17:52;1.83;;;1.25;;
31526;SDS011;18136;42.236;-73.040;2023-07-31T03:20:18;1.50;;;1.38;;
31526;SDS011;18136;42.236;-73.040;2023-07-31T03:22:44;2.03;;;1.67;;
31526;SDS011;18136;42.236;-73.040;2023-07-31T03:25:10;2.30;;;1.45;;
31526;SDS011;18136;42.236;-73.040;2023-07-31T03:27:36;2.17;;;1.40;;
31526;SDS011;18136;42.236;-73.040;2023-07-31T03:30:02;1.65;;;1.55;;
31526;SDS011;18136;42.236;-73.040;2023-07-31T03:32:29;1.90;;;1.40;;
31526;SDS011;18136;42.236;-73.040;2023-07-31T03:34:55;4.05;;;1.70;;
31526;SDS011;18136;42.236;-73.040;2023-07-31T03:37:22;1.50;;;1.40;;
31526;SDS011;18136;42.236;-73.040;2023-07-31T03:39:48;3.80;;;1.40;;
31526;SDS011;18136;42.236;-73.040;2023-07-31T03:42:14;2.17;;;1.60;;
31526;SDS011;18136;42.236;-73.040;2023-07-31T03:44:42;2.70;;;1.50;;
31526;SDS011;18136;42.236;-73.040;2023-07-31T03:47:08;3.70;;;1.33;;
31526;SDS011;18136;42.236;-73.040;2023-07-31T03:49:34;2.22;;;1.35;;
31526;SDS011;18136;42.236;-73.040;2023-07-31T03:52:00;4.82;;;1.40;;
31526;SDS011;18136;42.236;-73.040;2023-07-31T03:54:26;1.80;;;1.33;;
31526;SDS011;18136;42.236;-73.040;2023-07-31T03:56:54;2.58;;;1.48;;
31526;SDS011;18136;42.236;-73.040;2023-07-31T03:59:20;3.97;;;1.58;;
31526;SDS011;18136;42.236;-73.040;2023-07-31T04:01:47;1.80;;;1.50;;
31526;SDS011;18136;42.236;-73.040;2023-07-31T04:04:13;3.42;;;1.40;;
31526;SDS011;18136;42.236;-73.040;2023-07-31T04:06:39;3.33;;;1.20;;
31526;SDS011;18136;42.236;-73.040;2023-07-31T04:09:06;2.65;;;1.25;;
31526;SDS011;18136;42.236;-73.040;2023-07-31T04:11:32;2.80;;;1.40;;
31526;SDS011;18136;42.236;-73.040;2023-07-31T04:13:58;8.55;;;1.60;;
31526;SDS011;18136;42.236;-73.040;2023-07-31T04:16:24;3.95;;;1.40;;
31526;SDS011;18136;42.236;-73.040;2023-07-31T04:18:50;1.90;;;1.38;;
31526;SDS011;18136;42.236;-73.040;2023-07-31T04:21:19;3.38;;;1.40;;
31526;SDS011;18136;42.236;-73.040;2023-07-31T04:23:45;3.05;;;1.50;;
31526;SDS011;18136;42.236;-73.040;2023-07-31T04:26:11;1.90;;;1.67;;
31526;SDS011;18136;42.236;-73.040;2023-07-31T04:28:37;1.35;;;1.17;;
31526;SDS011;18136;42.236;-73.040;2023-07-31T04:31:03;1.48;;;1.13;;
31526;SDS011;18136;42.236;-73.040;2023-07-31T04:33:29;1.75;;;1.35;;
31526;SDS011;18136;42.236;-73.040;2023-07-31T04:35:56;2.03;;;1.20;;
31526;SDS011;18136;42.236;-73.040;2023-07-31T04:38:22;5.30;;;1.52;;
31526;SDS011;18136;42.236;-73.040;2023-07-31T04:40:49;1.98;;;1.30;;
31526;SDS011;18136;42.236;-73.040;2023-07-31T04:43:15;3.58;;;1.40;;
31526;SDS011;18136;42.236;-73.040;2023-07-31T04:45:45;2.33;;;1.52;;
31526;SDS011;18136;42.236;-73.040;2023-07-31T04:48:15;3.90;;;1.67;;
31526;SDS011;18136;42.236;-73.040;2023-07-31T04:50:41;6.47;;;1.52;;
31526;SDS011;18136;42.236;-73.040;2023-07-31T04:53:08;2.85;;;1.85;;
31526;SDS011;18136;42.236;-73.040;2023-07-31T04:55:34;3.20;;;1.52;;
31526;SDS011;18136;42.236;-73.040;2023-07-31T04:58:00;1.60;;;1.20;;
31526;SDS011;18136;42.236;-73.040;2023-07-31T05:00:26;3.47;;;1.70;;
31526;SDS011;18136;42.236;-73.040;2023-07-31T05:02:52;3.35;;;1.48;;
31526;SDS011;18136;42.236;-73.040;2023-07-31T05:05:18;2.30;;;1.60;;
31526;SDS011;18136;42.236;-73.040;2023-07-31T05:07:45;2.05;;;1.40;;
31526;SDS011;18136;42.236;-73.040;2023-07-31T05:10:11;2.20;;;1.63;;
31526;SDS011;18136;42.236;-73.040;2023-07-31T05:12:37;4.30;;;1.73;;
31526;SDS011;18136;42.236;-73.040;2023-07-31T05:15:03;2.25;;;1.75;;
31526;SDS011;18136;42.236;-73.040;2023-07-31T05:17:31;5.90;;;1.35;;
31526;SDS011;18136;42.236;-73.040;2023-07-31T05:19:57;1.98;;;1.40;;
31526;SDS011;18136;42.236;-73.040;2023-07-31T05:22:23;1.48;;;1.25;;
31526;SDS011;18136;42.236;-73.040;2023-07-31T05:24:49;1.48;;;1.30;;
31526;SDS011;18136;42.236;-73.040;2023-07-31T05:27:15;1.92;;;1.42;;
31526;SDS011;18136;42.236;-73.040;2023-07-31T05:29:43;2.33;;;1.58;;
31526;SDS011;18136;42.236;-73.040;2023-07-31T05:32:10;1.63;;;1.48;;
31526;SDS011;18136;42.236;-73.040;2023-07-31T05:34:37;4.63;;;1.58;;
31526;SDS011;18136;42.236;-73.040;2023-07-31T05:37:04;2.65;;;1.40;;
31526;SDS011;18136;42.236;-73.040;2023-07-31T05:39:31;1.65;;;1.55;;
31526;SDS011;18136;42.236;-73.040;2023-07-31T05:41:57;2.20;;;1.40;;
31526;SDS011;18136;42.236;-73.040;2023-07-31T05:44:23;4.00;;;1.50;;
31526;SDS011;18136;42.236;-73.040;2023-07-31T05:46:49;4.05;;;1.55;;
31526;SDS011;18136;42.236;-73.040;2023-07-31T05:49:15;2.05;;;1.25;;
31526;SDS011;18136;42.236;-73.040;2023-07-31T05:51:42;3.63;;;1.65;;
31526;SDS011;18136;42.236;-73.040;2023-07-31T05:54:08;6.53;;;2.10;;
31526;SDS011;18136;42.236;-73.040;2023-07-31T05:56:34;1.70;;;1.60;;
31526;SDS011;18136;42.236;-73.040;2023-07-31T05:59:00;3.58;;;1.50;;
31526;SDS011;18136;42.236;-73.040;2023-07-31T06:01:26;5.63;;;1.60;;
31526;SDS011;18136;42.236;-73.040;2023-07-31T06:03:52;2.83;;;1.42;;
31526;SDS011;18136;42.236;-73.040;2023-07-31T06:06:18;1.33;;;1.23;;
31526;SDS011;18136;42.236;-73.040;2023-07-31T06:08:44;2.15;;;1.38;;
31526;SDS011;18136;42.236;-73.040;2023-07-31T06:11:10;3.60;;;1.30;;
31526;SDS011;18136;42.236;-73.040;2023-07-31T06:13:36;4.20;;;1.48;;
31526;SDS011;18136;42.236;-73.040;2023-07-31T06:16:02;2.92;;;1.58;;
31526;SDS011;18136;42.236;-73.040;2023-07-31T06:18:32;2.10;;;1.55;;
31526;SDS011;18136;42.236;-73.040;2023-07-31T06:20:58;2.75;;;1.60;;
31526;SDS011;18136;42.236;-73.040;2023-07-31T06:23:25;1.92;;;1.30;;
31526;SDS011;18136;42.236;-73.040;2023-07-31T06:25:51;1.60;;;1.50;;
31526;SDS011;18136;42.236;-73.040;2023-07-31T06:28:17;2.33;;;1.27;;
31526;SDS011;18136;42.236;-73.040;2023-07-31T06:30:43;1.98;;;1.60;;
31526;SDS011;18136;42.236;-73.040;2023-07-31T06:33:14;5.57;;;1.80;;
31526;SDS011;18136;42.236;-73.040;2023-07-31T06:35:40;2.28;;;1.83;;
31526;SDS011;18136;42.236;-73.040;2023-07-31T06:38:06;2.38;;;1.58;;
31526;SDS011;18136;42.236;-73.040;2023-07-31T06:40:32;4.05;;;1.80;;
31526;SDS011;18136;42.236;-73.040;2023-07-31T06:42:58;2.92;;;1.55;;
31526;SDS011;18136;42.236;-73.040;2023-07-31T06:45:24;5.50;;;1.67;;
31526;SDS011;18136;42.236;-73.040;2023-07-31T06:47:51;3.42;;;1.67;;
31526;SDS011;18136;42.236;-73.040;2023-07-31T06:50:18;2.97;;;1.85;;
31526;SDS011;18136;42.236;-73.040;2023-07-31T06:52:44;1.83;;;1.60;;
31526;SDS011;18136;42.236;-73.040;2023-07-31T06:55:18;2.05;;;1.85;;
31526;SDS011;18136;42.236;-73.040;2023-07-31T06:57:47;2.00;;;1.88;;
31526;SDS011;18136;42.236;-73.040;2023-07-31T07:00:14;2.65;;;1.80;;
31526;SDS011;18136;42.236;-73.040;2023-07-31T07:02:40;2.10;;;1.90;;
31526;SDS011;18136;42.236;-73.040;2023-07-31T07:05:06;4.32;;;2.28;;
31526;SDS011;18136;42.236;-73.040;2023-07-31T07:07:33;4.40;;;1.70;;
31526;SDS011;18136;42.236;-73.040;2023-07-31T07:10:00;2.45;;;1.80;;
31526;SDS011;18136;42.236;-73.040;2023-07-31T07:12:32;2.08;;;1.80;;
31526;SDS011;18136;42.236;-73.040;2023-07-31T07:14:59;3.00;;;1.80;;
31526;SDS011;18136;42.236;-73.040;2023-07-31T07:17:28;2.08;;;1.85;;
31526;SDS011;18136;42.236;-73.040;2023-07-31T07:19:58;2.88;;;2.13;;
31526;SDS011;18136;42.236;-73.040;2023-07-31T07:22:25;2.80;;;1.80;;
31526;SDS011;18136;42.236;-73.040;2023-07-31T07:24:52;3.25;;;1.90;;
31526;SDS011;18136;42.236;-73.040;2023-07-31T07:27:18;2.13;;;1.92;;
31526;SDS011;18136;42.236;-73.040;2023-07-31T07:29:45;1.70;;;1.60;;
31526;SDS011;18136;42.236;-73.040;2023-07-31T07:32:12;2.30;;;1.75;;
31526;SDS011;18136;42.236;-73.040;2023-07-31T07:34:38;1.95;;;1.85;;
31526;SDS011;18136;42.236;-73.040;2023-07-31T07:37:04;1.92;;;1.77;;
31526;SDS011;18136;42.236;-73.040;2023-07-31T07:39:30;3.45;;;1.98;;
31526;SDS011;18136;42.236;-73.040;2023-07-31T07:41:57;3.67;;;1.83;;
31526;SDS011;18136;42.236;-73.040;2023-07-31T07:44:23;5.68;;;2.00;;
31526;SDS011;18136;42.236;-73.040;2023-07-31T07:46:49;3.40;;;2.15;;
31526;SDS011;18136;42.236;-73.040;2023-07-31T07:49:15;3.03;;;2.03;;
31526;SDS011;18136;42.236;-73.040;2023-07-31T07:51:41;4.82;;;2.05;;
31526;SDS011;18136;42.236;-73.040;2023-07-31T07:54:07;1.83;;;1.67;;
31526;SDS011;18136;42.236;-73.040;2023-07-31T07:56:33;2.88;;;2.05;;
31526;SDS011;18136;42.236;-73.040;2023-07-31T07:59:01;2.92;;;1.98;;
31526;SDS011;18136;42.236;-73.040;2023-07-31T08:01:27;2.15;;;1.95;;
31526;SDS011;18136;42.236;-73.040;2023-07-31T08:03:53;2.30;;;2.10;;
31526;SDS011;18136;42.236;-73.040;2023-07-31T08:06:19;1.92;;;1.70;;
31526;SDS011;18136;42.236;-73.040;2023-07-31T08:08:45;3.70;;;1.90;;
31526;SDS011;18136;42.236;-73.040;2023-07-31T08:11:11;4.30;;;2.00;;
31526;SDS011;18136;42.236;-73.040;2023-07-31T08:13:38;2.65;;;1.80;;
31526;SDS011;18136;42.236;-73.040;2023-07-31T08:16:04;5.32;;;2.10;;
31526;SDS011;18136;42.236;-73.040;2023-07-31T08:18:30;4.13;;;2.28;;
31526;SDS011;18136;42.236;-73.040;2023-07-31T08:21:02;3.53;;;1.98;;
31526;SDS011;18136;42.236;-73.040;2023-07-31T08:23:28;2.42;;;1.92;;
31526;SDS011;18136;42.236;-73.040;2023-07-31T08:25:54;4.60;;;2.17;;
31526;SDS011;18136;42.236;-73.040;2023-07-31T08:28:20;3.40;;;2.20;;
31526;SDS011;18136;42.236;-73.040;2023-07-31T08:30:48;2.60;;;2.30;;
31526;SDS011;18136;42.236;-73.040;2023-07-31T08:33:15;2.28;;;2.08;;
31526;SDS011;18136;42.236;-73.040;2023-07-31T08:35:41;3.58;;;2.00;;
31526;SDS011;18136;42.236;-73.040;2023-07-31T08:38:08;2.72;;;2.10;;
31526;SDS011;18136;42.236;-73.040;2023-07-31T08:40:38;6.50;;;2.28;;
31526;SDS011;18136;42.236;-73.040;2023-07-31T08:43:04;4.10;;;1.80;;
31526;SDS011;18136;42.236;-73.040;2023-07-31T08:45:30;3.60;;;1.95;;
31526;SDS011;18136;42.236;-73.040;2023-07-31T08:47:57;2.90;;;2.15;;
31526;SDS011;18136;42.236;-73.040;2023-07-31T08:50:24;2.05;;;1.90;;
31526;SDS011;18136;42.236;-73.040;2023-07-31T08:52:51;3.42;;;2.33;;
31526;SDS011;18136;42.236;-73.040;2023-07-31T08:55:17;4.68;;;2.13;;
31526;SDS011;18136;42.236;-73.040;2023-07-31T08:57:50;1.98;;;1.75;;
31526;SDS011;18136;42.236;-73.040;2023-07-31T09:00:20;2.55;;;1.88;;
31526;SDS011;18136;42.236;-73.040;2023-07-31T09:05:47;3.20;;;2.08;;
31526;SDS011;18136;42.236;-73.040;2023-07-31T09:08:13;3.78;;;2.20;;
31526;SDS011;18136;42.236;-73.040;2023-07-31T09:10:44;2.80;;;2.00;;
31526;SDS011;18136;42.236;-73.040;2023-07-31T09:13:11;4.15;;;1.95;;
31526;SDS011;18136;42.236;-73.040;2023-07-31T09:15:42;5.30;;;2.00;;
31526;SDS011;18136;42.236;-73.040;2023-07-31T09:18:11;2.90;;;2.10;;
31526;SDS011;18136;42.236;-73.040;2023-07-31T09:20:37;2.00;;;1.90;;
31526;SDS011;18136;42.236;-73.040;2023-07-31T09:25:34;4.32;;;2.17;;
31526;SDS011;18136;42.236;-73.040;2023-07-31T09:28:02;4.35;;;2.20;;
31526;SDS011;18136;42.236;-73.040;2023-07-31T09:30:30;5.30;;;2.17;;
31526;SDS011;18136;42.236;-73.040;2023-07-31T09:33:03;2.45;;;1.50;;
31526;SDS011;18136;42.236;-73.040;2023-07-31T09:35:34;3.90;;;1.80;;
31526;SDS011;18136;42.236;-73.040;2023-07-31T09:38:05;2.65;;;1.73;;
31526;SDS011;18136;42.236;-73.040;2023-07-31T09:40:36;2.53;;;1.95;;
31526;SDS011;18136;42.236;-73.040;2023-07-31T09:43:04;2.63;;;1.83;;
31526;SDS011;18136;42.236;-73.040;2023-07-31T09:45:33;5.18;;;2.13;;
31526;SDS011;18136;42.236;-73.040;2023-07-31T09:48:01;2.20;;;1.90;;
31526;SDS011;18136;42.236;-73.040;2023-07-31T09:50:28;4.80;;;1.75;;
31526;SDS011;18136;42.236;-73.040;2023-07-31T09:52:55;2.88;;;1.80;;
31526;SDS011;18136;42.236;-73.040;2023-07-31T09:55:21;2.10;;;1.90;;
31526;SDS011;18136;42.236;-73.040;2023-07-31T09:57:48;4.63;;;2.03;;
31526;SDS011;18136;42.236;-73.040;2023-07-31T10:00:15;2.92;;;1.85;;
31526;SDS011;18136;42.236;-73.040;2023-07-31T10:02:46;2.28;;;2.05;;
31526;SDS011;18136;42.236;-73.040;2023-07-31T10:05:13;2.55;;;1.90;;
31526;SDS011;18136;42.236;-73.040;2023-07-31T10:07:42;3.15;;;2.47;;
31526;SDS011;18136;42.236;-73.040;2023-07-31T10:10:16;4.88;;;2.13;;
31526;SDS011;18136;42.236;-73.040;2023-07-31T10:12:43;2.70;;;1.80;;
31526;SDS011;18136;42.236;-73.040;2023-07-31T10:15:10;5.60;;;1.88;;
31526;SDS011;18136;42.236;-73.040;2023-07-31T10:17:37;2.83;;;2.30;;
31526;SDS011;18136;42.236;-73.040;2023-07-31T10:20:03;3.25;;;1.95;;
31526;SDS011;18136;42.236;-73.040;2023-07-31T10:22:31;3.28;;;1.80;;
31526;SDS011;18136;42.236;-73.040;2023-07-31T10:24:58;4.07;;;1.90;;
31526;SDS011;18136;42.236;-73.040;2023-07-31T10:27:25;3.15;;;2.13;;
31526;SDS011;18136;42.236;-73.040;2023-07-31T10:29:54;4.57;;;2.13;;
31526;SDS011;18136;42.236;-73.040;2023-07-31T10:32:22;3.03;;;2.25;;
31526;SDS011;18136;42.236;-73.040;2023-07-31T10:34:50;3.85;;;1.90;;
31526;SDS011;18136;42.236;-73.040;2023-07-31T10:42:27;3.72;;;2.15;;
31526;SDS011;18136;42.236;-73.040;2023-07-31T10:45:00;4.22;;;2.20;;
31526;SDS011;18136;42.236;-73.040;2023-07-31T10:47:28;3.40;;;1.80;;
31526;SDS011;18136;42.236;-73.040;2023-07-31T10:50:10;4.97;;;2.10;;
31526;SDS011;18136;42.236;-73.040;2023-07-31T10:52:49;4.05;;;2.08;;
31526;SDS011;18136;42.236;-73.040;2023-07-31T10:57:53;5.07;;;2.40;;
31526;SDS011;18136;42.236;-73.040;2023-07-31T11:00:27;5.15;;;2.25;;
31526;SDS011;18136;42.236;-73.040;2023-07-31T11:05:43;5.43;;;2.90;;
31526;SDS011;18136;42.236;-73.040;2023-07-31T11:08:41;2.63;;;2.30;;
31526;SDS011;18136;42.236;-73.040;2023-07-31T11:11:09;3.08;;;2.08;;
31526;SDS011;18136;42.236;-73.040;2023-07-31T11:16:10;2.33;;;2.13;;
31526;SDS011;18136;42.236;-73.040;2023-07-31T11:18:40;2.20;;;2.00;;
31526;SDS011;18136;42.236;-73.040;2023-07-31T11:21:08;2.50;;;2.25;;
31526;SDS011;18136;42.236;-73.040;2023-07-31T11:23:38;5.53;;;2.38;;
31526;SDS011;18136;42.236;-73.040;2023-07-31T11:26:04;2.33;;;2.13;;
31526;SDS011;18136;42.236;-73.040;2023-07-31T11:28:32;2.53;;;2.22;;
31526;SDS011;18136;42.236;-73.040;2023-07-31T11:30:59;3.88;;;2.40;;
31526;SDS011;18136;42.236;-73.040;2023-07-31T11:33:26;1.90;;;1.80;;
31526;SDS011;18136;42.236;-73.040;2023-07-31T11:35:52;5.35;;;2.15;;
31526;SDS011;18136;42.236;-73.040;2023-07-31T11:38:29;1.90;;;1.77;;
31526;SDS011;18136;42.236;-73.040;2023-07-31T11:40:57;1.98;;;1.88;;
31526;SDS011;18136;42.236;-73.040;2023-07-31T11:43:30;7.28;;;2.13;;
31526;SDS011;18136;42.236;-73.040;2023-07-31T11:45:58;2.40;;;2.20;;
31526;SDS011;18136;42.236;-73.040;2023-07-31T11:48:31;3.83;;;2.20;;
31526;SDS011;18136;42.236;-73.040;2023-07-31T11:51:01;2.10;;;2.00;;
31526;SDS011;18136;42.236;-73.040;2023-07-31T11:53:51;2.20;;;2.00;;
31526;SDS011;18136;42.236;-73.040;2023-07-31T11:56:18;2.80;;;1.95;;
31526;SDS011;18136;42.236;-73.040;2023-07-31T11:58:48;2.63;;;2.10;;
31526;SDS011;18136;42.236;-73.040;2023-07-31T12:01:23;2.20;;;2.00;;
31526;SDS011;18136;42.236;-73.040;2023-07-31T12:03:52;2.35;;;1.90;;
31526;SDS011;18136;42.236;-73.040;2023-07-31T12:06:19;2.40;;;2.20;;
31526;SDS011;18136;42.236;-73.040;2023-07-31T12:08:46;2.08;;;1.98;;
31526;SDS011;18136;42.236;-73.040;2023-07-31T12:11:13;1.77;;;1.67;;
31526;SDS011;18136;42.236;-73.040;2023-07-31T12:13:40;2.10;;;1.90;;
31526;SDS011;18136;42.236;-73.040;2023-07-31T12:16:06;2.97;;;1.73;;
31526;SDS011;18136;42.236;-73.040;2023-07-31T12:18:36;2.10;;;1.90;;
31526;SDS011;18136;42.236;-73.040;2023-07-31T12:21:08;1.80;;;1.70;;
31526;SDS011;18136;42.236;-73.040;2023-07-31T12:23:37;2.35;;;2.15;;
31526;SDS011;18136;42.236;-73.040;2023-07-31T12:26:04;2.38;;;2.13;;
31526;SDS011;18136;42.236;-73.040;2023-07-31T12:28:39;2.22;;;2.03;;
31526;SDS011;18136;42.236;-73.040;2023-07-31T12:31:10;2.50;;;2.10;;
31526;SDS011;18136;42.236;-73.040;2023-07-31T12:33:48;1.95;;;1.85;;
31526;SDS011;18136;42.236;-73.040;2023-07-31T12:36:16;2.60;;;2.10;;
31526;SDS011;18136;42.236;-73.040;2023-07-31T12:38:45;3.90;;;1.80;;
31526;SDS011;18136;42.236;-73.040;2023-07-31T12:41:11;2.30;;;1.98;;
31526;SDS011;18136;42.236;-73.040;2023-07-31T12:43:39;1.67;;;1.58;;
31526;SDS011;18136;42.236;-73.040;2023-07-31T12:46:07;1.85;;;1.75;;
31526;SDS011;18136;42.236;-73.040;2023-07-31T12:48:34;2.00;;;1.80;;
31526;SDS011;18136;42.236;-73.040;2023-07-31T12:51:01;2.22;;;1.90;;
31526;SDS011;18136;42.236;-73.040;2023-07-31T12:53:28;2.00;;;1.90;;
31526;SDS011;18136;42.236;-73.040;2023-07-31T12:55:54;2.33;;;2.08;;
31526;SDS011;18136;42.236;-73.040;2023-07-31T12:58:21;2.08;;;1.90;;
31526;SDS011;18136;42.236;-73.040;2023-07-31T13:00:47;1.88;;;1.75;;
31526;SDS011;18136;42.236;-73.040;2023-07-31T13:03:13;1.88;;;1.73;;
31526;SDS011;18136;42.236;-73.040;2023-07-31T13:05:39;2.88;;;1.83;;
31526;SDS011;18136;42.236;-73.040;2023-07-31T13:08:05;3.15;;;1.80;;
31526;SDS011;18136;42.236;-73.040;2023-07-31T13:10:32;2.13;;;1.92;;
31526;SDS011;18136;42.236;-73.040;2023-07-31T13:12:58;2.55;;;1.80;;
31526;SDS011;18136;42.236;-73.040;2023-07-31T13:15:24;3.05;;;1.70;;
31526;SDS011;18136;42.236;-73.040;2023-07-31T13:17:50;2.00;;;1.80;;
31526;SDS011;18136;42.236;-73.040;2023-07-31T13:20:16;2.15;;;1.60;;
31526;SDS011;18136;42.236;-73.040;2023-07-31T13:22:42;1.85;;;1.75;;
31526;SDS011;18136;42.236;-73.040;2023-07-31T13:25:09;1.77;;;1.65;;
31526;SDS011;18136;42.236;-73.040;2023-07-31T13:27:35;2.88;;;1.70;;
31526;SDS011;18136;42.236;-73.040;2023-07-31T13:30:01;1.80;;;1.70;;
31526;SDS011;18136;42.236;-73.040;2023-07-31T13:32:29;1.55;;;1.45;;
31526;SDS011;18136;42.236;-73.040;2023-07-31T13:34:55;1.75;;;1.60;;
31526;SDS011;18136;42.236;-73.040;2023-07-31T13:37:21;2.83;;;1.60;;
31526;SDS011;18136;42.236;-73.040;2023-07-31T13:39:47;1.60;;;1.50;;
31526;SDS011;18136;42.236;-73.040;2023-07-31T13:42:13;1.75;;;1.55;;
31526;SDS011;18136;42.236;-73.040;2023-07-31T13:44:40;1.80;;;1.63;;
31526;SDS011;18136;42.236;-73.040;2023-07-31T13:47:07;1.73;;;1.63;;
31526;SDS011;18136;42.236;-73.040;2023-07-31T13:49:34;1.65;;;1.55;;
31526;SDS011;18136;42.236;-73.040;2023-07-31T13:52:00;2.85;;;1.58;;
31526;SDS011;18136;42.236;-73.040;2023-07-31T13:54:27;1.55;;;1.45;;
31526;SDS011;18136;42.236;-73.040;2023-07-31T13:56:53;2.17;;;1.95;;
31526;SDS011;18136;42.236;-73.040;2023-07-31T13:59:21;1.88;;;1.70;;
31526;SDS011;18136;42.236;-73.040;2023-07-31T14:01:47;1.95;;;1.75;;
31526;SDS011;18136;42.236;-73.040;2023-07-31T14:04:14;4.20;;;1.80;;
31526;SDS011;18136;42.236;-73.040;2023-07-31T14:06:40;2.00;;;1.88;;
31526;SDS011;18136;42.236;-73.040;2023-07-31T14:09:06;4.18;;;1.60;;
31526;SDS011;18136;42.236;-73.040;2023-07-31T14:11:35;1.98;;;1.33;;
31526;SDS011;18136;42.236;-73.040;2023-07-31T14:14:02;1.83;;;1.63;;
31526;SDS011;18136;42.236;-73.040;2023-07-31T14:16:30;1.40;;;1.30;;
31526;SDS011;18136;42.236;-73.040;2023-07-31T14:18:58;1.80;;;1.70;;
31526;SDS011;18136;42.236;-73.040;2023-07-31T14:21:25;2.33;;;1.60;;
31526;SDS011;18136;42.236;-73.040;2023-07-31T14:23:51;1.90;;;1.55;;
31526;SDS011;18136;42.236;-73.040;2023-07-31T14:26:19;1.48;;;1.25;;
31526;SDS011;18136;42.236;-73.040;2023-07-31T14:28:45;1.88;;;1.70;;
31526;SDS011;18136;42.236;-73.040;2023-07-31T14:31:11;3.47;;;1.40;;
31526;SDS011;18136;42.236;-73.040;2023-07-31T14:33:37;1.50;;;1.38;;
31526;SDS011;18136;42.236;-73.040;2023-07-31T14:36:04;1.75;;;1.65;;
31526;SDS011;18136;42.236;-73.040;2023-07-31T14:38:30;2.40;;;1.52;;
31526;SDS011;18136;42.236;-73.040;2023-07-31T14:40:56;1.42;;;1.33;;
31526;SDS011;18136;42.236;-73.040;2023-07-31T14:43:22;3.38;;;2.05;;
31526;SDS011;18136;42.236;-73.040;2023-07-31T14:45:49;2.70;;;1.40;;
31526;SDS011;18136;42.236;-73.040;2023-07-31T14:48:17;2.53;;;1.63;;